sensor_id;sensor_type;location;lat;lon;timestamp;P1;durP1;ratioP1;P2;durP2;ratioP2
56043;SDS011;41912;51.022;3.664;2023-01-16T00:01:53;5.30;;;1.35;;
56043;SDS011;41912;51.022;3.664;2023-01-16T00:04:21;8.57;;;1.42;;
56043;SDS011;41912;51.022;3.664;2023-01-16T00:06:46;7.47;;;1.30;;
56043;SDS011;41912;51.022;3.664;2023-01-16T00:09:12;8.82;;;1.73;;
56043;SDS011;41912;51.022;3.664;2023-01-16T00:11:38;8.60;;;1.58;;
56043;SDS011;41912;51.022;3.664;2023-01-16T00:14:04;9.50;;;1.48;;
56043;SDS011;41912;51.022;3.664;2023-01-16T00:16:29;3.33;;;1.05;;
56043;SDS011;41912;51.022;3.664;2023-01-16T00:18:55;7.00;;;1.35;;
56043;SDS011;41912;51.022;3.664;2023-01-16T00:21:21;7.68;;;1.13;;
56043;SDS011;41912;51.022;3.664;2023-01-16T00:23:55;6.03;;;1.05;;
56043;SDS011;41912;51.022;3.664;2023-01-16T00:26:22;4.68;;;0.90;;
56043;SDS011;41912;51.022;3.664;2023-01-16T00:28:49;5.32;;;1.10;;
56043;SDS011;41912;51.022;3.664;2023-01-16T00:31:15;5.57;;;1.33;;
56043;SDS011;41912;51.022;3.664;2023-01-16T00:33:41;2.25;;;1.10;;
56043;SDS011;41912;51.022;3.664;2023-01-16T00:36:08;6.65;;;2.22;;
56043;SDS011;41912;51.022;3.664;2023-01-16T00:38:34;7.15;;;1.38;;
56043;SDS011;41912;51.022;3.664;2023-01-16T00:41:00;4.47;;;1.30;;
56043;SDS011;41912;51.022;3.664;2023-01-16T00:43:26;7.68;;;1.40;;
56043;SDS011;41912;51.022;3.664;2023-01-16T00:45:51;7.05;;;1.10;;
56043;SDS011;41912;51.022;3.664;2023-01-16T00:48:17;5.85;;;1.63;;
56043;SDS011;41912;51.022;3.664;2023-01-16T00:50:43;4.65;;;1.60;;
56043;SDS011;41912;51.022;3.664;2023-01-16T00:53:08;8.13;;;2.22;;
56043;SDS011;41912;51.022;3.664;2023-01-16T00:55:34;9.52;;;2.60;;
56043;SDS011;41912;51.022;3.664;2023-01-16T00:58:02;7.65;;;1.90;;
56043;SDS011;41912;51.022;3.664;2023-01-16T01:00:29;5.60;;;2.10;;
56043;SDS011;41912;51.022;3.664;2023-01-16T01:02:55;8.68;;;2.00;;
56043;SDS011;41912;51.022;3.664;2023-01-16T01:05:21;4.88;;;1.98;;
56043;SDS011;41912;51.022;3.664;2023-01-16T01:07:47;4.50;;;1.80;;
56043;SDS011;41912;51.022;3.664;2023-01-16T01:10:12;7.47;;;2.30;;
56043;SDS011;41912;51.022;3.664;2023-01-16T01:12:38;6.50;;;1.70;;
56043;SDS011;41912;51.022;3.664;2023-01-16T01:15:04;6.30;;;1.88;;
56043;SDS011;41912;51.022;3.664;2023-01-16T01:17:30;6.15;;;1.38;;
56043;SDS011;41912;51.022;3.664;2023-01-16T01:19:56;3.83;;;1.30;;
56043;SDS011;41912;51.022;3.664;2023-01-16T01:22:21;6.65;;;1.55;;
56043;SDS011;41912;51.022;3.664;2023-01-16T01:24:47;7.85;;;1.20;;
56043;SDS011;41912;51.022;3.664;2023-01-16T01:27:14;5.75;;;1.33;;
56043;SDS011;41912;51.022;3.664;2023-01-16T01:29:40;12.48;;;1.45;;
56043;SDS011;41912;51.022;3.664;2023-01-16T01:32:06;3.67;;;1.13;;
56043;SDS011;41912;51.022;3.664;2023-01-16T01:34:32;7.13;;;1.02;;
56043;SDS011;41912;51.022;3.664;2023-01-16T01:37:02;7.55;;;1.20;;
56043;SDS011;41912;51.022;3.664;2023-01-16T01:39:29;7.15;;;1.35;;
56043;SDS011;41912;51.022;3.664;2023-01-16T01:41:55;9.88;;;1.10;;
56043;SDS011;41912;51.022;3.664;2023-01-16T01:47:26;7.30;;;1.25;;
56043;SDS011;41912;51.022;3.664;2023-01-16T01:49:57;5.30;;;1.10;;
56043;SDS011;41912;51.022;3.664;2023-01-16T01:52:26;4.07;;;1.75;;
56043;SDS011;41912;51.022;3.664;2023-01-16T01:54:56;6.47;;;1.30;;
56043;SDS011;41912;51.022;3.664;2023-01-16T01:57:27;8.32;;;1.35;;
56043;SDS011;41912;51.022;3.664;2023-01-16T02:00:02;7.07;;;1.00;;
56043;SDS011;41912;51.022;3.664;2023-01-16T02:02:33;5.43;;;1.30;;
56043;SDS011;41912;51.022;3.664;2023-01-16T02:05:02;8.45;;;1.20;;
56043;SDS011;41912;51.022;3.664;2023-01-16T02:07:31;3.63;;;1.27;;
56043;SDS011;41912;51.022;3.664;2023-01-16T02:10:10;10.05;;;1.38;;
56043;SDS011;41912;51.022;3.664;2023-01-16T02:12:47;6.63;;;1.35;;
56043;SDS011;41912;51.022;3.664;2023-01-16T02:15:13;6.15;;;2.08;;
56043;SDS011;41912;51.022;3.664;2023-01-16T02:17:45;6.07;;;1.52;;
56043;SDS011;41912;51.022;3.664;2023-01-16T02:20:31;7.45;;;1.98;;
56043;SDS011;41912;51.022;3.664;2023-01-16T02:37:48;11.27;;;2.47;;
56043;SDS011;41912;51.022;3.664;2023-01-16T02:40:39;9.88;;;1.77;;
56043;SDS011;41912;51.022;3.664;2023-01-16T02:46:11;11.27;;;1.80;;
56043;SDS011;41912;51.022;3.664;2023-01-16T02:48:56;14.18;;;2.17;;
56043;SDS011;41912;51.022;3.664;2023-01-16T02:51:42;8.48;;;1.88;;
56043;SDS011;41912;51.022;3.664;2023-01-16T02:54:16;12.63;;;2.25;;
56043;SDS011;41912;51.022;3.664;2023-01-16T02:56:51;13.15;;;2.38;;
56043;SDS011;41912;51.022;3.664;2023-01-16T02:59:23;8.63;;;2.05;;
56043;SDS011;41912;51.022;3.664;2023-01-16T03:01:50;13.95;;;3.47;;
56043;SDS011;41912;51.022;3.664;2023-01-16T03:07:09;14.63;;;2.05;;
56043;SDS011;41912;51.022;3.664;2023-01-16T03:18:19;6.55;;;1.63;;
56043;SDS011;41912;51.022;3.664;2023-01-16T03:26:07;8.65;;;2.67;;
56043;SDS011;41912;51.022;3.664;2023-01-16T03:39:39;7.93;;;2.30;;
56043;SDS011;41912;51.022;3.664;2023-01-16T03:42:10;10.32;;;2.03;;
56043;SDS011;41912;51.022;3.664;2023-01-16T03:44:41;11.00;;;2.33;;
56043;SDS011;41912;51.022;3.664;2023-01-16T03:47:13;11.77;;;2.42;;
56043;SDS011;41912;51.022;3.664;2023-01-16T03:49:45;7.60;;;1.50;;
56043;SDS011;41912;51.022;3.664;2023-01-16T03:52:15;12.43;;;3.05;;
56043;SDS011;41912;51.022;3.664;2023-01-16T03:54:49;8.43;;;1.40;;
56043;SDS011;41912;51.022;3.664;2023-01-16T03:57:38;10.95;;;1.83;;
56043;SDS011;41912;51.022;3.664;2023-01-16T04:00:17;11.98;;;1.58;;
56043;SDS011;41912;51.022;3.664;2023-01-16T04:02:55;4.45;;;1.50;;
56043;SDS011;41912;51.022;3.664;2023-01-16T04:05:34;9.23;;;1.52;;
56043;SDS011;41912;51.022;3.664;2023-01-16T04:08:18;7.90;;;1.60;;
56043;SDS011;41912;51.022;3.664;2023-01-16T04:10:48;13.13;;;1.73;;
56043;SDS011;41912;51.022;3.664;2023-01-16T04:13:17;12.18;;;3.55;;
56043;SDS011;41912;51.022;3.664;2023-01-16T04:15:48;11.70;;;1.48;;
56043;SDS011;41912;51.022;3.664;2023-01-16T04:18:18;8.82;;;2.13;;
56043;SDS011;41912;51.022;3.664;2023-01-16T04:20:46;6.57;;;1.52;;
56043;SDS011;41912;51.022;3.664;2023-01-16T04:23:14;7.55;;;1.50;;
56043;SDS011;41912;51.022;3.664;2023-01-16T04:25:41;9.93;;;1.83;;
56043;SDS011;41912;51.022;3.664;2023-01-16T04:28:07;12.18;;;2.35;;
56043;SDS011;41912;51.022;3.664;2023-01-16T04:30:33;9.07;;;1.67;;
56043;SDS011;41912;51.022;3.664;2023-01-16T04:33:02;5.57;;;2.00;;
56043;SDS011;41912;51.022;3.664;2023-01-16T04:35:28;14.38;;;3.97;;
56043;SDS011;41912;51.022;3.664;2023-01-16T04:37:54;8.38;;;1.55;;
56043;SDS011;41912;51.022;3.664;2023-01-16T04:40:20;10.35;;;1.83;;
56043;SDS011;41912;51.022;3.664;2023-01-16T04:42:45;17.13;;;1.98;;
56043;SDS011;41912;51.022;3.664;2023-01-16T04:45:11;8.38;;;2.25;;
56043;SDS011;41912;51.022;3.664;2023-01-16T04:47:37;10.38;;;1.80;;
56043;SDS011;41912;51.022;3.664;2023-01-16T04:50:02;14.00;;;1.80;;
56043;SDS011;41912;51.022;3.664;2023-01-16T04:52:28;12.65;;;1.20;;
56043;SDS011;41912;51.022;3.664;2023-01-16T04:54:54;10.57;;;1.77;;
56043;SDS011;41912;51.022;3.664;2023-01-16T04:57:20;14.85;;;1.60;;
56043;SDS011;41912;51.022;3.664;2023-01-16T04:59:45;4.95;;;1.13;;
56043;SDS011;41912;51.022;3.664;2023-01-16T05:02:11;6.38;;;1.35;;
56043;SDS011;41912;51.022;3.664;2023-01-16T05:04:37;10.68;;;2.67;;
56043;SDS011;41912;51.022;3.664;2023-01-16T05:07:02;5.47;;;1.60;;
56043;SDS011;41912;51.022;3.664;2023-01-16T05:09:28;8.65;;;1.10;;
56043;SDS011;41912;51.022;3.664;2023-01-16T05:11:53;7.32;;;1.10;;
56043;SDS011;41912;51.022;3.664;2023-01-16T05:14:19;11.32;;;1.15;;
56043;SDS011;41912;51.022;3.664;2023-01-16T05:16:45;6.47;;;0.98;;
56043;SDS011;41912;51.022;3.664;2023-01-16T05:19:11;9.27;;;1.33;;
56043;SDS011;41912;51.022;3.664;2023-01-16T05:21:37;3.88;;;0.98;;
56043;SDS011;41912;51.022;3.664;2023-01-16T05:24:05;11.80;;;1.20;;
56043;SDS011;41912;51.022;3.664;2023-01-16T05:26:31;4.65;;;0.70;;
56043;SDS011;41912;51.022;3.664;2023-01-16T05:28:57;3.72;;;1.52;;
56043;SDS011;41912;51.022;3.664;2023-01-16T05:31:23;5.03;;;0.98;;
56043;SDS011;41912;51.022;3.664;2023-01-16T05:33:49;3.90;;;0.77;;
56043;SDS011;41912;51.022;3.664;2023-01-16T05:36:15;6.28;;;0.77;;
56043;SDS011;41912;51.022;3.664;2023-01-16T05:38:40;5.28;;;0.90;;
56043;SDS011;41912;51.022;3.664;2023-01-16T05:41:06;5.35;;;0.90;;
56043;SDS011;41912;51.022;3.664;2023-01-16T05:43:32;3.22;;;0.80;;
56043;SDS011;41912;51.022;3.664;2023-01-16T05:45:58;2.25;;;0.93;;
56043;SDS011;41912;51.022;3.664;2023-01-16T05:48:23;2.95;;;0.90;;
56043;SDS011;41912;51.022;3.664;2023-01-16T05:50:49;4.78;;;0.70;;
56043;SDS011;41912;51.022;3.664;2023-01-16T05:53:15;4.70;;;1.33;;
56043;SDS011;41912;51.022;3.664;2023-01-16T05:55:45;2.80;;;0.55;;
56043;SDS011;41912;51.022;3.664;2023-01-16T05:58:12;3.58;;;0.75;;
56043;SDS011;41912;51.022;3.664;2023-01-16T06:00:39;6.68;;;2.55;;
56043;SDS011;41912;51.022;3.664;2023-01-16T06:03:05;5.22;;;1.08;;
56043;SDS011;41912;51.022;3.664;2023-01-16T06:05:32;3.67;;;0.80;;
56043;SDS011;41912;51.022;3.664;2023-01-16T06:07:57;2.13;;;0.68;;
56043;SDS011;41912;51.022;3.664;2023-01-16T06:10:26;4.95;;;0.70;;
56043;SDS011;41912;51.022;3.664;2023-01-16T06:12:52;0.98;;;0.45;;
56043;SDS011;41912;51.022;3.664;2023-01-16T06:15:17;2.38;;;0.70;;
56043;SDS011;41912;51.022;3.664;2023-01-16T06:17:43;5.30;;;0.60;;
56043;SDS011;41912;51.022;3.664;2023-01-16T06:20:09;7.78;;;2.10;;
56043;SDS011;41912;51.022;3.664;2023-01-16T06:22:35;3.17;;;0.40;;
56043;SDS011;41912;51.022;3.664;2023-01-16T06:25:01;3.00;;;0.45;;
56043;SDS011;41912;51.022;3.664;2023-01-16T06:27:26;2.00;;;0.90;;
56043;SDS011;41912;51.022;3.664;2023-01-16T06:29:52;3.17;;;0.60;;
56043;SDS011;41912;51.022;3.664;2023-01-16T06:32:18;1.38;;;0.60;;
56043;SDS011;41912;51.022;3.664;2023-01-16T06:34:44;1.30;;;0.70;;
56043;SDS011;41912;51.022;3.664;2023-01-16T06:37:12;0.75;;;0.50;;
56043;SDS011;41912;51.022;3.664;2023-01-16T06:39:38;1.85;;;0.82;;
56043;SDS011;41912;51.022;3.664;2023-01-16T06:42:03;1.58;;;0.70;;
56043;SDS011;41912;51.022;3.664;2023-01-16T06:44:32;1.85;;;0.95;;
56043;SDS011;41912;51.022;3.664;2023-01-16T06:46:59;0.47;;;0.40;;
56043;SDS011;41912;51.022;3.664;2023-01-16T06:49:25;0.68;;;0.35;;
56043;SDS011;41912;51.022;3.664;2023-01-16T06:51:51;0.98;;;0.38;;
56043;SDS011;41912;51.022;3.664;2023-01-16T06:54:16;0.57;;;0.30;;
56043;SDS011;41912;51.022;3.664;2023-01-16T06:56:42;1.00;;;0.30;;
56043;SDS011;41912;51.022;3.664;2023-01-16T06:59:08;0.60;;;0.32;;
56043;SDS011;41912;51.022;3.664;2023-01-16T07:01:33;0.57;;;0.40;;
56043;SDS011;41912;51.022;3.664;2023-01-16T07:03:59;0.77;;;0.20;;
56043;SDS011;41912;51.022;3.664;2023-01-16T07:06:24;1.65;;;0.52;;
56043;SDS011;41912;51.022;3.664;2023-01-16T07:08:50;0.50;;;0.40;;
56043;SDS011;41912;51.022;3.664;2023-01-16T07:11:17;1.60;;;0.50;;
56043;SDS011;41912;51.022;3.664;2023-01-16T07:14:01;3.78;;;0.57;;
56043;SDS011;41912;51.022;3.664;2023-01-16T07:16:48;0.57;;;0.30;;
56043;SDS011;41912;51.022;3.664;2023-01-16T07:19:32;0.45;;;0.38;;
56043;SDS011;41912;51.022;3.664;2023-01-16T07:22:16;0.57;;;0.40;;
56043;SDS011;41912;51.022;3.664;2023-01-16T07:25:02;1.13;;;0.38;;
56043;SDS011;41912;51.022;3.664;2023-01-16T07:27:34;0.40;;;0.30;;
56043;SDS011;41912;51.022;3.664;2023-01-16T07:30:00;3.95;;;0.60;;
56043;SDS011;41912;51.022;3.664;2023-01-16T07:32:26;1.75;;;0.30;;
56043;SDS011;41912;51.022;3.664;2023-01-16T07:34:51;0.28;;;0.28;;
56043;SDS011;41912;51.022;3.664;2023-01-16T07:37:17;4.28;;;0.68;;
56043;SDS011;41912;51.022;3.664;2023-01-16T07:39:42;3.67;;;0.85;;
56043;SDS011;41912;51.022;3.664;2023-01-16T07:42:08;12.05;;;5.28;;
56043;SDS011;41912;51.022;3.664;2023-01-16T07:44:36;1.88;;;1.40;;
56043;SDS011;41912;51.022;3.664;2023-01-16T07:47:02;2.08;;;0.90;;
56043;SDS011;41912;51.022;3.664;2023-01-16T07:49:28;3.88;;;0.70;;
56043;SDS011;41912;51.022;3.664;2023-01-16T07:51:53;2.40;;;0.70;;
56043;SDS011;41912;51.022;3.664;2023-01-16T07:54:19;2.28;;;1.70;;
56043;SDS011;41912;51.022;3.664;2023-01-16T07:56:46;0.88;;;0.50;;
56043;SDS011;41912;51.022;3.664;2023-01-16T07:59:12;2.35;;;0.55;;
56043;SDS011;41912;51.022;3.664;2023-01-16T08:01:40;1.77;;;1.20;;
56043;SDS011;41912;51.022;3.664;2023-01-16T08:04:07;1.60;;;0.70;;
56043;SDS011;41912;51.022;3.664;2023-01-16T08:06:33;2.28;;;0.82;;
56043;SDS011;41912;51.022;3.664;2023-01-16T08:08:59;1.80;;;0.60;;
56043;SDS011;41912;51.022;3.664;2023-01-16T08:11:25;1.35;;;0.65;;
56043;SDS011;41912;51.022;3.664;2023-01-16T08:14:11;3.35;;;0.60;;
56043;SDS011;41912;51.022;3.664;2023-01-16T08:16:40;2.30;;;0.90;;
56043;SDS011;41912;51.022;3.664;2023-01-16T08:19:06;4.43;;;0.70;;
56043;SDS011;41912;51.022;3.664;2023-01-16T08:21:34;2.63;;;0.73;;
56043;SDS011;41912;51.022;3.664;2023-01-16T08:24:00;2.65;;;0.70;;
56043;SDS011;41912;51.022;3.664;2023-01-16T08:26:25;5.82;;;0.73;;
56043;SDS011;41912;51.022;3.664;2023-01-16T08:28:51;1.88;;;0.52;;
56043;SDS011;41912;51.022;3.664;2023-01-16T08:31:17;5.63;;;0.70;;
56043;SDS011;41912;51.022;3.664;2023-01-16T08:33:45;3.03;;;0.80;;
56043;SDS011;41912;51.022;3.664;2023-01-16T08:36:16;2.80;;;1.30;;
56043;SDS011;41912;51.022;3.664;2023-01-16T08:38:45;2.53;;;0.77;;
56043;SDS011;41912;51.022;3.664;2023-01-16T08:41:10;3.00;;;0.98;;
56043;SDS011;41912;51.022;3.664;2023-01-16T08:43:54;3.72;;;0.90;;
56043;SDS011;41912;51.022;3.664;2023-01-16T08:46:39;4.28;;;0.70;;
56043;SDS011;41912;51.022;3.664;2023-01-16T08:49:23;5.43;;;0.70;;
56043;SDS011;41912;51.022;3.664;2023-01-16T08:52:08;3.38;;;0.60;;
56043;SDS011;41912;51.022;3.664;2023-01-16T08:54:34;5.13;;;1.08;;
56043;SDS011;41912;51.022;3.664;2023-01-16T08:57:02;2.13;;;0.60;;
56043;SDS011;41912;51.022;3.664;2023-01-16T08:59:28;0.77;;;0.50;;
56043;SDS011;41912;51.022;3.664;2023-01-16T09:02:01;4.78;;;0.98;;
56043;SDS011;41912;51.022;3.664;2023-01-16T09:04:29;3.17;;;0.73;;
56043;SDS011;41912;51.022;3.664;2023-01-16T09:06:57;2.05;;;0.57;;
56043;SDS011;41912;51.022;3.664;2023-01-16T09:09:26;2.67;;;0.70;;
56043;SDS011;41912;51.022;3.664;2023-01-16T09:11:55;3.13;;;0.63;;
56043;SDS011;41912;51.022;3.664;2023-01-16T09:14:40;1.75;;;0.55;;
56043;SDS011;41912;51.022;3.664;2023-01-16T09:17:06;4.05;;;0.60;;
56043;SDS011;41912;51.022;3.664;2023-01-16T09:19:33;3.08;;;0.77;;
56043;SDS011;41912;51.022;3.664;2023-01-16T09:21:59;1.80;;;0.60;;
56043;SDS011;41912;51.022;3.664;2023-01-16T09:24:25;4.40;;;0.52;;
56043;SDS011;41912;51.022;3.664;2023-01-16T09:26:51;1.75;;;0.68;;
56043;SDS011;41912;51.022;3.664;2023-01-16T09:29:19;7.55;;;2.17;;
56043;SDS011;41912;51.022;3.664;2023-01-16T09:31:45;11.05;;;2.80;;
56043;SDS011;41912;51.022;3.664;2023-01-16T09:34:10;1.17;;;0.57;;
56043;SDS011;41912;51.022;3.664;2023-01-16T09:36:36;1.45;;;0.60;;
56043;SDS011;41912;51.022;3.664;2023-01-16T09:39:02;2.90;;;0.55;;
56043;SDS011;41912;51.022;3.664;2023-01-16T09:41:28;0.75;;;0.40;;
56043;SDS011;41912;51.022;3.664;2023-01-16T09:44:18;2.03;;;0.63;;
56043;SDS011;41912;51.022;3.664;2023-01-16T09:46:48;2.13;;;0.50;;
56043;SDS011;41912;51.022;3.664;2023-01-16T09:49:19;6.85;;;0.70;;
56043;SDS011;41912;51.022;3.664;2023-01-16T09:52:12;0.70;;;0.40;;
56043;SDS011;41912;51.022;3.664;2023-01-16T09:55:09;0.47;;;0.40;;
56043;SDS011;41912;51.022;3.664;2023-01-16T09:58:02;2.55;;;1.60;;
56043;SDS011;41912;51.022;3.664;2023-01-16T10:00:48;1.05;;;0.20;;
56043;SDS011;41912;51.022;3.664;2023-01-16T10:03:14;2.30;;;1.23;;
56043;SDS011;41912;51.022;3.664;2023-01-16T10:05:58;1.65;;;0.30;;
56043;SDS011;41912;51.022;3.664;2023-01-16T10:14:41;2.75;;;0.40;;
56043;SDS011;41912;51.022;3.664;2023-01-16T10:25:54;0.60;;;0.50;;
56043;SDS011;41912;51.022;3.664;2023-01-16T10:31:12;0.90;;;0.40;;
56043;SDS011;41912;51.022;3.664;2023-01-16T10:33:46;0.47;;;0.38;;
56043;SDS011;41912;51.022;3.664;2023-01-16T10:36:21;1.00;;;0.50;;
56043;SDS011;41912;51.022;3.664;2023-01-16T10:38:51;1.17;;;0.32;;
56043;SDS011;41912;51.022;3.664;2023-01-16T10:41:23;1.55;;;0.40;;
56043;SDS011;41912;51.022;3.664;2023-01-16T10:44:22;1.23;;;0.50;;
56043;SDS011;41912;51.022;3.664;2023-01-16T10:47:11;0.52;;;0.32;;
56043;SDS011;41912;51.022;3.664;2023-01-16T10:50:00;0.20;;;0.15;;
56043;SDS011;41912;51.022;3.664;2023-01-16T10:52:26;0.45;;;0.45;;
56043;SDS011;41912;51.022;3.664;2023-01-16T10:54:53;0.95;;;0.40;;
56043;SDS011;41912;51.022;3.664;2023-01-16T10:57:24;0.75;;;0.30;;
56043;SDS011;41912;51.022;3.664;2023-01-16T10:59:50;0.57;;;0.38;;
56043;SDS011;41912;51.022;3.664;2023-01-16T11:02:23;1.85;;;0.40;;
56043;SDS011;41912;51.022;3.664;2023-01-16T11:05:21;0.70;;;0.30;;
56043;SDS011;41912;51.022;3.664;2023-01-16T11:08:09;1.48;;;1.27;;
56043;SDS011;41912;51.022;3.664;2023-01-16T11:10:40;1.00;;;0.65;;
56043;SDS011;41912;51.022;3.664;2023-01-16T11:13:13;1.20;;;0.50;;
56043;SDS011;41912;51.022;3.664;2023-01-16T11:16:08;1.30;;;0.47;;
56043;SDS011;41912;51.022;3.664;2023-01-16T11:22:09;0.63;;;0.40;;
56043;SDS011;41912;51.022;3.664;2023-01-16T11:24:48;0.93;;;0.28;;
56043;SDS011;41912;51.022;3.664;2023-01-16T11:27:21;1.08;;;0.30;;
56043;SDS011;41912;51.022;3.664;2023-01-16T11:29:51;1.25;;;0.60;;
56043;SDS011;41912;51.022;3.664;2023-01-16T11:32:19;5.05;;;0.45;;
56043;SDS011;41912;51.022;3.664;2023-01-16T11:34:50;1.50;;;0.60;;
56043;SDS011;41912;51.022;3.664;2023-01-16T11:37:18;2.88;;;0.65;;
56043;SDS011;41912;51.022;3.664;2023-01-16T11:39:49;1.60;;;0.45;;
56043;SDS011;41912;51.022;3.664;2023-01-16T11:42:17;4.55;;;0.60;;
56043;SDS011;41912;51.022;3.664;2023-01-16T11:45:18;1.42;;;0.70;;
56043;SDS011;41912;51.022;3.664;2023-01-16T11:48:07;1.17;;;0.70;;
56043;SDS011;41912;51.022;3.664;2023-01-16T11:50:50;2.13;;;0.82;;
56043;SDS011;41912;51.022;3.664;2023-01-16T11:53:17;4.13;;;0.88;;
56043;SDS011;41912;51.022;3.664;2023-01-16T11:55:49;3.05;;;1.17;;
56043;SDS011;41912;51.022;3.664;2023-01-16T11:58:32;3.53;;;1.15;;
56043;SDS011;41912;51.022;3.664;2023-01-16T12:01:13;2.85;;;1.95;;
56043;SDS011;41912;51.022;3.664;2023-01-16T12:04:01;4.07;;;1.30;;
56043;SDS011;41912;51.022;3.664;2023-01-16T12:09:25;7.05;;;3.40;;
56043;SDS011;41912;51.022;3.664;2023-01-16T12:12:05;5.90;;;2.78;;
56043;SDS011;41912;51.022;3.664;2023-01-16T12:15:02;7.15;;;3.50;;
56043;SDS011;41912;51.022;3.664;2023-01-16T12:18:04;3.83;;;1.50;;
56043;SDS011;41912;51.022;3.664;2023-01-16T12:20:45;4.68;;;1.52;;
56043;SDS011;41912;51.022;3.664;2023-01-16T12:37:24;3.75;;;1.05;;
56043;SDS011;41912;51.022;3.664;2023-01-16T13:02:08;1.90;;;1.00;;
56043;SDS011;41912;51.022;3.664;2023-01-16T13:04:43;4.40;;;1.00;;
56043;SDS011;41912;51.022;3.664;2023-01-16T13:07:15;2.22;;;1.05;;
56043;SDS011;41912;51.022;3.664;2023-01-16T13:12:21;2.33;;;1.02;;
56043;SDS011;41912;51.022;3.664;2023-01-16T13:15:11;2.80;;;0.98;;
56043;SDS011;41912;51.022;3.664;2023-01-16T13:17:50;2.10;;;1.10;;
56043;SDS011;41912;51.022;3.664;2023-01-16T13:20:22;2.08;;;1.23;;
56043;SDS011;41912;51.022;3.664;2023-01-16T13:23:03;1.17;;;0.85;;
56043;SDS011;41912;51.022;3.664;2023-01-16T13:25:39;1.70;;;0.70;;
56043;SDS011;41912;51.022;3.664;2023-01-16T13:30:54;2.15;;;0.80;;
56043;SDS011;41912;51.022;3.664;2023-01-16T13:33:22;1.30;;;0.80;;
56043;SDS011;41912;51.022;3.664;2023-01-16T13:36:00;1.00;;;0.52;;
56043;SDS011;41912;51.022;3.664;2023-01-16T13:46:49;2.15;;;1.00;;
56043;SDS011;41912;51.022;3.664;2023-01-16T13:49:24;1.67;;;0.70;;
56043;SDS011;41912;51.022;3.664;2023-01-16T13:51:56;2.15;;;0.93;;
56043;SDS011;41912;51.022;3.664;2023-01-16T13:54:35;1.80;;;0.98;;
56043;SDS011;41912;51.022;3.664;2023-01-16T13:57:07;2.60;;;0.70;;
56043;SDS011;41912;51.022;3.664;2023-01-16T13:59:46;7.82;;;2.15;;
56043;SDS011;41912;51.022;3.664;2023-01-16T14:13:13;4.63;;;2.00;;
56043;SDS011;41912;51.022;3.664;2023-01-16T14:18:42;3.00;;;1.63;;
56043;SDS011;41912;51.022;3.664;2023-01-16T14:21:48;3.72;;;1.52;;
56043;SDS011;41912;51.022;3.664;2023-01-16T14:24:43;3.47;;;1.48;;
56043;SDS011;41912;51.022;3.664;2023-01-16T14:27:15;9.85;;;1.92;;
56043;SDS011;41912;51.022;3.664;2023-01-16T14:32:27;2.63;;;1.50;;
56043;SDS011;41912;51.022;3.664;2023-01-16T14:37:27;1.92;;;1.33;;
56043;SDS011;41912;51.022;3.664;2023-01-16T14:42:37;2.60;;;1.20;;
56043;SDS011;41912;51.022;3.664;2023-01-16T14:45:30;2.20;;;1.10;;
56043;SDS011;41912;51.022;3.664;2023-01-16T14:53:37;5.03;;;1.40;;
56043;SDS011;41912;51.022;3.664;2023-01-16T14:56:25;2.92;;;1.00;;
56043;SDS011;41912;51.022;3.664;2023-01-16T14:58:58;1.95;;;0.82;;
56043;SDS011;41912;51.022;3.664;2023-01-16T15:01:29;5.07;;;1.13;;
56043;SDS011;41912;51.022;3.664;2023-01-16T15:04:18;3.70;;;1.42;;
56043;SDS011;41912;51.022;3.664;2023-01-16T15:06:52;3.45;;;0.73;;
56043;SDS011;41912;51.022;3.664;2023-01-16T15:09:22;7.32;;;0.73;;
56043;SDS011;41912;51.022;3.664;2023-01-16T15:12:01;7.68;;;0.88;;
56043;SDS011;41912;51.022;3.664;2023-01-16T15:14:33;6.97;;;0.70;;
56043;SDS011;41912;51.022;3.664;2023-01-16T15:17:15;1.02;;;0.60;;
56043;SDS011;41912;51.022;3.664;2023-01-16T15:22:52;2.80;;;1.60;;
56043;SDS011;41912;51.022;3.664;2023-01-16T15:31:00;3.80;;;0.65;;
56043;SDS011;41912;51.022;3.664;2023-01-16T15:33:33;8.13;;;1.02;;
56043;SDS011;41912;51.022;3.664;2023-01-16T15:36:26;3.92;;;0.68;;
56043;SDS011;41912;51.022;3.664;2023-01-16T15:39:00;3.97;;;1.02;;
56043;SDS011;41912;51.022;3.664;2023-01-16T15:41:43;7.47;;;0.95;;
56043;SDS011;41912;51.022;3.664;2023-01-16T15:44:31;9.70;;;1.15;;
56043;SDS011;41912;51.022;3.664;2023-01-16T15:50:19;2.30;;;0.70;;
56043;SDS011;41912;51.022;3.664;2023-01-16T15:52:58;5.63;;;0.90;;
56043;SDS011;41912;51.022;3.664;2023-01-16T15:55:46;2.40;;;0.77;;
56043;SDS011;41912;51.022;3.664;2023-01-16T15:58:14;3.85;;;1.02;;
56043;SDS011;41912;51.022;3.664;2023-01-16T16:00:43;5.85;;;0.60;;
56043;SDS011;41912;51.022;3.664;2023-01-16T16:05:46;3.13;;;0.77;;
56043;SDS011;41912;51.022;3.664;2023-01-16T16:08:22;3.83;;;0.73;;
56043;SDS011;41912;51.022;3.664;2023-01-16T16:10:50;6.70;;;1.00;;
56043;SDS011;41912;51.022;3.664;2023-01-16T16:13:36;3.13;;;1.00;;
56043;SDS011;41912;51.022;3.664;2023-01-16T16:16:03;7.88;;;0.85;;
56043;SDS011;41912;51.022;3.664;2023-01-16T16:19:02;9.55;;;2.47;;
56043;SDS011;41912;51.022;3.664;2023-01-16T16:21:47;8.48;;;1.83;;
56043;SDS011;41912;51.022;3.664;2023-01-16T16:24:33;6.13;;;1.10;;
56043;SDS011;41912;51.022;3.664;2023-01-16T16:27:05;9.02;;;1.42;;
56043;SDS011;41912;51.022;3.664;2023-01-16T16:29:31;9.63;;;3.28;;
56043;SDS011;41912;51.022;3.664;2023-01-16T16:32:00;1.77;;;0.82;;
56043;SDS011;41912;51.022;3.664;2023-01-16T16:34:30;4.65;;;1.30;;
56043;SDS011;41912;51.022;3.664;2023-01-16T16:36:58;3.15;;;0.73;;
56043;SDS011;41912;51.022;3.664;2023-01-16T16:39:34;5.00;;;0.70;;
56043;SDS011;41912;51.022;3.664;2023-01-16T16:47:41;1.42;;;0.73;;
56043;SDS011;41912;51.022;3.664;2023-01-16T16:50:34;7.22;;;1.33;;
56043;SDS011;41912;51.022;3.664;2023-01-16T16:53:04;4.75;;;0.93;;
56043;SDS011;41912;51.022;3.664;2023-01-16T16:55:36;7.50;;;0.88;;
56043;SDS011;41912;51.022;3.664;2023-01-16T16:58:19;8.60;;;1.10;;
56043;SDS011;41912;51.022;3.664;2023-01-16T17:00:47;1.83;;;0.70;;
56043;SDS011;41912;51.022;3.664;2023-01-16T17:03:16;4.25;;;1.05;;
56043;SDS011;41912;51.022;3.664;2023-01-16T17:05:47;4.65;;;1.65;;
56043;SDS011;41912;51.022;3.664;2023-01-16T17:08:21;4.70;;;1.20;;
56043;SDS011;41912;51.022;3.664;2023-01-16T17:10:47;4.93;;;1.30;;
56043;SDS011;41912;51.022;3.664;2023-01-16T17:13:17;5.38;;;1.30;;
56043;SDS011;41912;51.022;3.664;2023-01-16T17:15:44;4.32;;;1.23;;
56043;SDS011;41912;51.022;3.664;2023-01-16T17:18:12;8.18;;;1.65;;
56043;SDS011;41912;51.022;3.664;2023-01-16T17:20:39;8.65;;;2.67;;
56043;SDS011;41912;51.022;3.664;2023-01-16T17:23:23;7.70;;;1.58;;
56043;SDS011;41912;51.022;3.664;2023-01-16T17:25:50;14.13;;;2.05;;
56043;SDS011;41912;51.022;3.664;2023-01-16T17:28:16;16.38;;;2.38;;
56043;SDS011;41912;51.022;3.664;2023-01-16T17:30:42;12.15;;;2.10;;
56043;SDS011;41912;51.022;3.664;2023-01-16T17:35:37;13.50;;;2.15;;
56043;SDS011;41912;51.022;3.664;2023-01-16T17:38:07;15.20;;;2.30;;
56043;SDS011;41912;51.022;3.664;2023-01-16T17:40:36;7.30;;;1.83;;
56043;SDS011;41912;51.022;3.664;2023-01-16T17:43:02;16.05;;;1.70;;
56043;SDS011;41912;51.022;3.664;2023-01-16T17:45:47;14.18;;;1.92;;
56043;SDS011;41912;51.022;3.664;2023-01-16T17:48:17;16.17;;;1.63;;
56043;SDS011;41912;51.022;3.664;2023-01-16T17:50:44;9.45;;;1.70;;
56043;SDS011;41912;51.022;3.664;2023-01-16T17:53:14;19.42;;;2.33;;
56043;SDS011;41912;51.022;3.664;2023-01-16T17:55:43;14.27;;;2.10;;
56043;SDS011;41912;51.022;3.664;2023-01-16T17:58:19;15.18;;;1.95;;
56043;SDS011;41912;51.022;3.664;2023-01-16T18:01:00;17.83;;;3.05;;
56043;SDS011;41912;51.022;3.664;2023-01-16T18:03:28;11.38;;;1.60;;
56043;SDS011;41912;51.022;3.664;2023-01-16T18:05:58;9.82;;;1.85;;